Time;durP1;ratioP1;P1;durP2;ratioP2;P2;SDS_P1;SDS_P2;PMS_P1;PMS_P2;Temp;Humidity;BMP_temperature;BMP_pressure;BME280_temperature;BME280_humidity;BME280_pressure;Samples;Min_cycle;Max_cycle;Signal;HPM_P1;HPM_P2
2023/07/21 00:01:52;;;;;;;1.88;0.77;;;20.70;79.30;;;;;;5097670;28;20016;-81
2023/07/21 00:04:18;;;;;;;0.88;0.70;;;20.70;79.30;;;;;;5096381;28;20477;-81
2023/07/21 00:06:43;;;;;;;1.60;0.80;;;20.70;79.40;;;;;;5096148;28;20036;-81
2023/07/21 00:09:12;;;;;;;1.77;0.75;;;20.70;79.50;;;;;;5097029;28;20024;-82
2023/07/21 00:11:38;;;;;;;1.40;0.73;;;20.70;79.50;;;;;;5098621;28;20065;-82
2023/07/21 00:14:05;;;;;;;0.82;0.70;;;20.70;79.50;;;;;;5096651;28;20020;-81
2023/07/21 00:16:33;;;;;;;1.77;0.73;;;20.70;80.10;;;;;;5097794;28;20031;-81
2023/07/21 00:18:59;;;;;;;1.23;0.73;;;20.70;79.60;;;;;;5097250;28;20028;-81
2023/07/21 00:21:24;;;;;;;0.75;0.70;;;20.60;79.60;;;;;;5096846;28;20573;-81
2023/07/21 00:23:51;;;;;;;1.63;0.80;;;20.70;79.60;;;;;;5096219;28;20120;-81
2023/07/21 00:26:16;;;;;;;1.20;0.70;;;20.60;79.60;;;;;;5096382;28;20494;-81
2023/07/21 00:28:43;;;;;;;1.17;0.80;;;20.60;79.60;;;;;;5096397;28;20028;-81
2023/07/21 00:31:09;;;;;;;1.73;0.80;;;20.60;79.60;;;;;;5096227;28;20031;-81
2023/07/21 00:33:34;;;;;;;1.42;0.75;;;20.60;79.60;;;;;;5096655;28;20020;-81
2023/07/21 00:36:00;;;;;;;1.50;0.77;;;20.60;79.70;;;;;;5095968;28;20058;-81
2023/07/21 00:38:25;;;;;;;1.40;0.80;;;20.70;79.70;;;;;;5095410;28;20367;-80
2023/07/21 00:40:51;;;;;;;1.77;0.80;;;20.70;79.70;;;;;;5097040;28;20502;-81
2023/07/21 00:43:17;;;;;;;1.15;0.77;;;20.60;79.70;;;;;;5095024;28;20031;-81
2023/07/21 00:45:45;;;;;;;1.25;0.82;;;20.60;79.70;;;;;;5097059;28;20042;-81
2023/07/21 00:48:11;;;;;;;1.98;0.90;;;20.70;79.70;;;;;;5095076;28;20028;-81
2023/07/21 00:50:51;;;;;;;0.80;0.70;;;20.70;79.80;;;;;;5094589;28;20032;-81
2023/07/21 00:53:18;;;;;;;1.20;0.85;;;20.70;79.70;;;;;;5096087;28;20024;-81
2023/07/21 00:55:47;;;;;;;1.27;0.80;;;20.70;79.70;;;;;;5094737;28;20032;-80
2023/07/21 00:58:13;;;;;;;1.70;0.90;;;20.70;79.70;;;;;;5095152;28;20021;-80
2023/07/21 01:00:40;;;;;;;1.40;0.80;;;20.80;79.60;;;;;;5094239;28;20016;-81
2023/07/21 01:03:08;;;;;;;1.02;0.73;;;20.80;79.60;;;;;;5094202;28;20026;-81
2023/07/21 01:05:38;;;;;;;0.70;0.70;;;20.80;79.70;;;;;;5093982;28;20482;-81
2023/07/21 01:08:07;;;;;;;1.08;0.70;;;20.80;79.60;;;;;;5094215;28;20046;-81
2023/07/21 01:10:35;;;;;;;0.93;0.68;;;20.80;79.70;;;;;;5093952;28;20024;-81
2023/07/21 01:13:02;;;;;;;1.50;0.80;;;20.80;79.60;;;;;;5093444;28;20031;-80
2023/07/21 01:15:29;;;;;;;1.45;0.93;;;20.80;79.60;;;;;;5093855;28;20077;-81
2023/07/21 01:17:57;;;;;;;1.38;0.70;;;20.80;79.70;;;;;;5095000;28;21145;-81
2023/07/21 01:20:24;;;;;;;1.45;0.70;;;20.80;79.70;;;;;;5093515;28;20024;-80
2023/07/21 01:23:00;;;;;;;1.25;0.80;;;20.70;79.70;;;;;;5093296;28;20108;-81
2023/07/21 01:25:28;;;;;;;1.73;0.90;;;20.70;79.80;;;;;;5093732;28;20016;-80
2023/07/21 01:27:55;;;;;;;1.52;0.85;;;20.70;79.80;;;;;;5093048;28;20024;-81
2023/07/21 01:30:22;;;;;;;2.05;0.82;;;20.70;79.90;;;;;;5093371;28;20030;-80
2023/07/21 01:32:50;;;;;;;1.20;0.80;;;20.60;80.00;;;;;;5094466;28;20507;-80
2023/07/21 01:35:17;;;;;;;1.15;0.70;;;20.60;80.00;;;;;;5092811;28;20027;-80
2023/07/21 01:37:45;;;;;;;1.15;0.80;;;20.60;80.00;;;;;;5092673;28;20028;-81
2023/07/21 01:40:15;;;;;;;0.82;0.80;;;20.60;80.00;;;;;;5094017;28;20478;-81
2023/07/21 01:42:44;;;;;;;2.08;1.00;;;20.60;80.00;;;;;;5094027;28;20032;-81
2023/07/21 01:45:11;;;;;;;0.70;0.63;;;20.60;80.00;;;;;;5092391;28;20380;-81
2023/07/21 01:47:37;;;;;;;0.95;0.80;;;20.60;80.10;;;;;;5093769;28;20028;-81
2023/07/21 01:50:06;;;;;;;0.93;0.80;;;20.60;80.10;;;;;;5092419;28;20093;-81
2023/07/21 01:52:35;;;;;;;2.63;1.00;;;20.60;80.20;;;;;;5093944;28;20040;-81
2023/07/21 01:55:17;;;;;;;1.42;0.73;;;20.60;80.20;;;;;;5091836;28;20069;-81
2023/07/21 01:57:48;;;;;;;1.20;0.88;;;20.60;80.20;;;;;;5093694;28;20504;-80
2023/07/21 02:00:15;;;;;;;1.03;0.80;;;20.60;80.20;;;;;;5093977;28;20107;-81
2023/07/21 02:02:42;;;;;;;1.15;0.90;;;20.60;80.20;;;;;;5093333;28;20389;-81
2023/07/21 02:05:25;;;;;;;1.35;0.90;;;20.60;80.20;;;;;;5093054;28;20439;-81
2023/07/21 02:07:51;;;;;;;1.10;0.75;;;20.60;80.20;;;;;;5092084;28;20553;-81
2023/07/21 02:10:17;;;;;;;1.25;0.80;;;20.60;80.20;;;;;;5093120;28;20024;-80
2023/07/21 02:12:42;;;;;;;2.30;0.88;;;20.60;80.20;;;;;;5091762;28;20063;-80
2023/07/21 02:15:09;;;;;;;1.70;0.80;;;20.60;80.20;;;;;;5091474;28;20028;-81
2023/07/21 02:17:35;;;;;;;0.98;0.75;;;20.60;80.30;;;;;;5091938;28;20027;-80
2023/07/21 02:20:07;;;;;;;1.63;0.80;;;20.60;80.20;;;;;;5093132;28;20073;-81
2023/07/21 02:22:33;;;;;;;0.90;0.70;;;20.60;80.20;;;;;;5091867;28;20020;-81
2023/07/21 02:24:59;;;;;;;1.20;0.90;;;20.60;80.20;;;;;;5091640;28;20478;-81
2023/07/21 02:27:24;;;;;;;1.60;0.88;;;20.70;80.30;;;;;;5093467;28;20028;-81
2023/07/21 02:29:50;;;;;;;0.95;0.80;;;20.70;80.20;;;;;;5093014;28;20074;-81
2023/07/21 02:32:15;;;;;;;1.08;0.90;;;20.70;80.20;;;;;;5092886;28;20024;-80
2023/07/21 02:34:41;;;;;;;1.50;0.85;;;20.70;80.10;;;;;;5092711;28;20032;-81
2023/07/21 02:37:07;;;;;;;1.30;0.90;;;20.70;80.10;;;;;;5092567;28;20432;-80
2023/07/21 02:39:32;;;;;;;1.23;0.90;;;20.70;80.20;;;;;;5091436;28;20116;-81
2023/07/21 02:41:59;;;;;;;1.85;0.90;;;20.70;80.10;;;;;;5091547;28;20028;-81
2023/07/21 02:44:25;;;;;;;1.40;0.93;;;20.70;80.10;;;;;;5090944;28;20020;-80
2023/07/21 02:46:51;;;;;;;2.28;0.90;;;20.70;80.10;;;;;;5091013;28;20030;-79
2023/07/21 02:49:18;;;;;;;2.08;0.88;;;20.70;80.10;;;;;;5109571;28;20102;-81
2023/07/21 02:51:43;;;;;;;1.65;0.88;;;20.70;80.10;;;;;;5111913;28;20019;-80
2023/07/21 02:54:09;;;;;;;1.20;0.90;;;20.70;80.10;;;;;;5111390;28;20107;-80
2023/07/21 02:56:34;;;;;;;1.05;0.80;;;20.70;80.20;;;;;;5111216;28;20083;-80
2023/07/21 02:59:02;;;;;;;1.75;0.80;;;20.70;80.20;;;;;;5112692;28;20028;-80
2023/07/21 03:01:28;;;;;;;1.73;1.02;;;20.60;80.30;;;;;;5111545;28;20024;-80
2023/07/21 03:03:54;;;;;;;1.60;1.00;;;20.60;80.40;;;;;;5111202;28;20031;-80
2023/07/21 03:06:20;;;;;;;1.23;0.90;;;20.60;80.50;;;;;;5112802;28;20020;-81
2023/07/21 03:08:46;;;;;;;1.15;0.82;;;20.60;80.50;;;;;;5111501;28;20076;-81
2023/07/21 03:11:13;;;;;;;1.45;0.90;;;20.60;80.50;;;;;;5115247;28;20114;-82
2023/07/21 03:13:41;;;;;;;1.25;0.80;;;20.60;80.50;;;;;;5113974;28;20110;-81
2023/07/21 03:16:07;;;;;;;2.30;1.23;;;20.60;80.50;;;;;;5115642;28;20084;-82
2023/07/21 03:18:32;;;;;;;1.33;0.90;;;20.60;80.50;;;;;;5114340;28;20028;-81
2023/07/21 03:21:01;;;;;;;2.53;1.08;;;20.60;80.60;;;;;;5116069;28;20115;-81
2023/07/21 03:23:26;;;;;;;1.20;0.90;;;20.60;80.60;;;;;;5118857;28;20030;-81
2023/07/21 03:25:52;;;;;;;1.20;0.90;;;20.60;80.60;;;;;;5117412;28;20024;-81
2023/07/21 03:28:17;;;;;;;1.13;1.00;;;20.60;80.60;;;;;;5119321;28;20023;-81
2023/07/21 03:30:43;;;;;;;1.20;0.90;;;20.60;80.60;;;;;;5118703;28;20016;-81
2023/07/21 03:33:08;;;;;;;1.38;0.88;;;20.60;80.60;;;;;;5119701;27;20020;-82
2023/07/21 03:35:34;;;;;;;1.40;0.73;;;20.60;80.60;;;;;;5117755;28;20029;-81
2023/07/21 03:38:00;;;;;;;1.50;0.90;;;20.60;80.70;;;;;;5118418;28;20024;-81
2023/07/21 03:40:25;;;;;;;1.65;0.80;;;20.60;80.70;;;;;;5117568;28;20011;-81
2023/07/21 03:42:52;;;;;;;1.10;0.90;;;20.60;80.70;;;;;;5117676;28;20024;-81
2023/07/21 03:45:18;;;;;;;1.02;0.93;;;20.60;80.70;;;;;;5116889;28;20024;-81
2023/07/21 03:47:43;;;;;;;1.52;1.05;;;20.60;80.70;;;;;;5117524;28;20068;-81
2023/07/21 03:50:09;;;;;;;1.27;0.80;;;20.60;80.70;;;;;;5117289;28;20034;-81
2023/07/21 03:52:35;;;;;;;1.13;0.90;;;20.60;80.70;;;;;;5116860;28;20118;-81
2023/07/21 03:55:00;;;;;;;1.73;1.15;;;20.60;80.60;;;;;;5116647;28;20023;-81
2023/07/21 03:57:26;;;;;;;0.88;0.80;;;20.60;80.60;;;;;;5116993;28;20020;-81
2023/07/21 03:59:52;;;;;;;1.42;0.90;;;20.60;80.60;;;;;;5116817;28;20107;-81
2023/07/21 04:02:18;;;;;;;1.98;0.98;;;20.60;80.60;;;;;;5117932;28;20366;-81
2023/07/21 04:04:46;;;;;;;0.93;0.80;;;20.70;80.60;;;;;;5117394;28;20031;-81
2023/07/21 04:07:13;;;;;;;1.58;0.80;;;20.70;80.50;;;;;;5117612;28;20115;-81
2023/07/21 04:09:38;;;;;;;1.35;0.90;;;20.70;80.50;;;;;;5115901;28;20032;-80
2023/07/21 04:12:05;;;;;;;1.50;0.88;;;20.70;80.50;;;;;;5117653;27;20047;-81
2023/07/21 04:14:30;;;;;;;1.60;0.98;;;20.70;80.50;;;;;;5117062;28;20415;-81
2023/07/21 04:16:56;;;;;;;1.90;0.90;;;20.70;80.40;;;;;;5116429;28;20035;-81
2023/07/21 04:19:21;;;;;;;1.77;0.90;;;20.70;80.40;;;;;;5108433;27;20037;-80
2023/07/21 04:21:48;;;;;;;1.08;0.88;;;20.70;80.50;;;;;;5094905;28;20059;-81
2023/07/21 04:37:32;;;;;;;1.25;0.80;;;20.60;80.70;;;;;;4992225;28;20050;-81
2023/07/21 04:40:20;;;;;;;1.15;0.90;;;20.70;80.80;;;;;;4976053;28;20437;-81
2023/07/21 04:43:16;;;;;;;1.83;1.00;;;20.60;80.70;;;;;;4975179;28;20042;-80
2023/07/21 04:45:42;;;;;;;0.90;0.80;;;20.50;80.70;;;;;;4972960;28;20030;-80
2023/07/21 04:48:59;;;;;;;0.85;0.80;;;20.00;80.40;;;;;;4949265;28;20123;-79
2023/07/21 04:52:29;;;;;;;;;;;;;;;;;;;;;
2023/07/21 04:56:07;;;;;;;1.00;0.90;;;20.60;80.80;;;;;;4939579;29;20493;-80
2023/07/21 05:02:42;;;;;;;1.10;0.80;;;20.40;80.60;;;;;;4912379;29;20027;-79
2023/07/21 05:22:23;;;;;;;1.55;1.00;;;20.50;80.70;;;;;;4817534;29;20079;-80
2023/07/21 05:24:57;;;;;;;1.30;0.90;;;20.60;80.70;;;;;;4846279;29;20071;-81
2023/07/21 05:27:30;;;;;;;1.20;0.90;;;20.60;80.60;;;;;;4896841;29;20060;-81
2023/07/21 05:30:05;;;;;;;1.02;0.93;;;21.60;81.10;;;;;;4950506;28;20468;-80
2023/07/21 05:33:22;;;;;;;1.55;1.00;;;20.60;80.60;;;;;;4954924;28;20031;-80
2023/07/21 05:36:44;;;;;;;1.85;1.00;;;20.60;80.70;;;;;;4931484;29;20048;-81
2023/07/21 05:45:42;;;;;;;1.65;1.00;;;20.70;80.30;;;;;;5155983;22;20068;-78
2023/07/21 05:48:09;;;;;;;1.20;1.00;;;20.70;80.40;;;;;;4990451;28;20531;-81
2023/07/21 05:50:36;;;;;;;1.50;1.00;;;20.70;80.40;;;;;;4990980;28;20034;-80
2023/07/21 05:53:01;;;;;;;1.83;1.20;;;20.70;80.40;;;;;;4990213;28;20777;-81
2023/07/21 05:55:27;;;;;;;2.75;1.08;;;20.70;80.30;;;;;;4988711;28;20113;-81
2023/07/21 05:57:53;;;;;;;2.30;1.10;;;20.70;80.00;;;;;;4988611;28;20030;-82
2023/07/21 06:00:18;;;;;;;1.50;1.10;;;20.70;80.00;;;;;;4988316;28;20088;-81
2023/07/21 06:02:44;;;;;;;3.03;1.17;;;20.70;79.90;;;;;;4988637;28;20504;-82
2023/07/21 06:05:10;;;;;;;2.22;1.17;;;20.70;79.90;;;;;;4988037;28;20027;-81
2023/07/21 06:07:35;;;;;;;2.45;1.10;;;20.70;80.00;;;;;;4988472;28;20064;-82
2023/07/21 06:10:02;;;;;;;1.80;1.15;;;20.70;80.10;;;;;;4988453;28;20143;-81
2023/07/21 06:12:28;;;;;;;2.40;1.10;;;20.70;80.20;;;;;;4988489;28;20388;-82
2023/07/21 06:14:54;;;;;;;2.30;1.13;;;20.70;80.20;;;;;;4988020;28;20026;-81
2023/07/21 06:17:19;;;;;;;3.10;1.08;;;20.70;80.30;;;;;;4989541;28;20554;-82
2023/07/21 06:19:48;;;;;;;2.22;1.10;;;20.70;80.30;;;;;;4988490;28;20052;-81
2023/07/21 06:22:13;;;;;;;3.35;0.90;;;20.70;80.40;;;;;;4989435;28;20038;-82
2023/07/21 06:24:39;;;;;;;2.03;0.90;;;20.70;80.40;;;;;;4987471;28;20026;-81
2023/07/21 06:27:05;;;;;;;1.25;0.95;;;20.70;80.40;;;;;;4989454;28;20025;-82
2023/07/21 06:29:31;;;;;;;2.03;0.80;;;20.70;80.40;;;;;;4987841;28;20027;-81
2023/07/21 06:31:57;;;;;;;2.35;1.08;;;20.70;80.30;;;;;;4989188;28;20022;-82
2023/07/21 06:34:22;;;;;;;1.83;0.90;;;20.70;80.40;;;;;;4989735;28;20023;-82
2023/07/21 06:36:48;;;;;;;2.22;1.20;;;20.70;80.40;;;;;;4992702;28;20518;-82
2023/07/21 06:39:13;;;;;;;1.55;0.90;;;20.70;80.40;;;;;;4992501;28;20025;-83
2023/07/21 06:41:39;;;;;;;1.70;0.90;;;20.70;80.40;;;;;;4992053;28;20022;-83
2023/07/21 06:44:04;;;;;;;1.90;1.20;;;20.70;80.30;;;;;;4991754;28;20480;-82
2023/07/21 06:46:30;;;;;;;3.10;1.20;;;20.70;80.30;;;;;;4991395;28;20567;-82
2023/07/21 06:48:56;;;;;;;1.23;0.98;;;20.70;80.30;;;;;;4992128;28;20114;-82
2023/07/21 06:51:22;;;;;;;2.50;1.05;;;20.70;80.30;;;;;;4991279;28;20022;-83
2023/07/21 06:53:47;;;;;;;2.65;1.35;;;20.70;80.30;;;;;;4990573;28;20026;-82
2023/07/21 06:56:13;;;;;;;1.38;0.80;;;20.70;80.30;;;;;;4992431;28;20022;-82
2023/07/21 06:58:39;;;;;;;1.95;1.02;;;20.70;80.30;;;;;;4995877;28;20019;-83
2023/07/21 07:01:04;;;;;;;1.20;1.00;;;20.80;80.30;;;;;;4995676;28;20031;-82
2023/07/21 07:03:30;;;;;;;2.38;1.30;;;20.80;80.30;;;;;;4995541;28;20046;-83
2023/07/21 07:05:57;;;;;;;0.82;0.77;;;20.80;80.20;;;;;;4995111;28;20773;-81
2023/07/21 07:08:22;;;;;;;1.90;1.00;;;20.80;80.20;;;;;;4995698;28;20502;-83
2023/07/21 07:10:48;;;;;;;2.38;1.17;;;20.80;80.00;;;;;;4994561;28;20022;-83
2023/07/21 07:13:14;;;;;;;2.10;1.10;;;20.90;80.00;;;;;;4994208;28;20058;-83
2023/07/21 07:15:39;;;;;;;1.35;0.90;;;20.90;79.80;;;;;;4994316;28;20026;-82
2023/07/21 07:18:05;;;;;;;1.35;1.10;;;21.00;79.70;;;;;;4994165;28;20026;-82
2023/07/21 07:20:31;;;;;;;1.40;0.90;;;21.00;79.60;;;;;;4994308;28;20033;-82
2023/07/21 07:22:56;;;;;;;1.23;0.90;;;21.00;79.60;;;;;;4995458;28;20018;-83
2023/07/21 07:25:24;;;;;;;1.38;1.00;;;21.00;79.50;;;;;;4995197;28;20054;-83
2023/07/21 07:27:51;;;;;;;2.15;1.05;;;21.00;79.40;;;;;;4993717;28;20507;-82
2023/07/21 07:30:20;;;;;;;1.65;1.02;;;21.00;79.40;;;;;;4993494;28;20388;-82
2023/07/21 07:32:45;;;;;;;3.05;1.10;;;21.00;79.90;;;;;;4995061;28;20023;-83
2023/07/21 07:35:11;;;;;;;1.48;1.00;;;21.10;79.40;;;;;;4992847;28;20027;-82
2023/07/21 07:37:37;;;;;;;1.42;0.85;;;21.10;79.40;;;;;;4993089;28;20077;-82
2023/07/21 07:40:05;;;;;;;1.52;1.00;;;21.10;79.30;;;;;;4992942;28;20025;-83
2023/07/21 07:42:30;;;;;;;1.35;0.80;;;21.00;79.30;;;;;;4992672;28;20022;-83
2023/07/21 07:44:59;;;;;;;1.70;1.10;;;21.00;79.40;;;;;;4993528;28;20061;-82
2023/07/21 07:47:25;;;;;;;1.70;0.90;;;21.10;79.50;;;;;;4992496;28;20161;-82
2023/07/21 07:49:51;;;;;;;2.92;1.00;;;21.00;79.50;;;;;;4992258;28;20117;-83
2023/07/21 07:52:18;;;;;;;1.15;1.00;;;21.00;79.60;;;;;;4992174;28;20027;-81
2023/07/21 07:54:44;;;;;;;1.60;1.00;;;21.10;79.60;;;;;;4991904;28;20026;-83
2023/07/21 07:57:10;;;;;;;1.95;1.00;;;21.10;79.60;;;;;;4991820;28;20173;-82
2023/07/21 07:59:35;;;;;;;1.10;0.98;;;21.10;79.60;;;;;;4991655;28;20026;-81
2023/07/21 08:02:01;;;;;;;1.17;1.00;;;21.10;79.90;;;;;;4991869;28;20022;-81
2023/07/21 08:04:26;;;;;;;1.40;0.93;;;21.10;79.50;;;;;;4991842;28;20015;-82
2023/07/21 08:06:52;;;;;;;1.27;0.90;;;21.10;79.60;;;;;;4991152;28;20473;-81
2023/07/21 08:09:17;;;;;;;1.52;0.80;;;21.10;79.60;;;;;;4991779;28;20468;-82
2023/07/21 08:11:43;;;;;;;1.20;0.90;;;21.10;79.60;;;;;;4991114;28;20102;-81
2023/07/21 08:14:08;;;;;;;1.42;0.90;;;21.10;79.50;;;;;;4990812;28;20121;-82
2023/07/21 08:16:36;;;;;;;1.48;1.05;;;21.10;79.60;;;;;;4992638;28;20022;-82
2023/07/21 08:19:02;;;;;;;1.40;0.98;;;21.10;79.50;;;;;;4991253;28;20539;-82
2023/07/21 08:21:28;;;;;;;1.20;1.00;;;21.20;79.60;;;;;;4992411;28;20018;-81
2023/07/21 08:23:54;;;;;;;2.22;1.10;;;21.20;79.50;;;;;;4990809;28;20591;-81
2023/07/21 08:26:21;;;;;;;1.30;1.00;;;21.20;79.50;;;;;;4990584;28;20431;-81
2023/07/21 08:28:47;;;;;;;1.50;1.00;;;21.20;79.40;;;;;;4991060;28;20038;-81
2023/07/21 08:31:12;;;;;;;1.77;1.00;;;21.20;79.40;;;;;;4991765;28;20065;-81
2023/07/21 08:33:39;;;;;;;2.20;1.05;;;21.20;79.50;;;;;;4990654;28;20033;-81
2023/07/21 08:36:05;;;;;;;1.10;0.98;;;21.20;79.40;;;;;;4990311;28;20069;-81
2023/07/21 08:38:33;;;;;;;1.67;1.05;;;21.20;79.60;;;;;;4990307;28;20507;-82
2023/07/21 08:41:12;;;;;;;0.85;0.85;;;21.10;79.60;;;;;;4990068;28;20109;-82
2023/07/21 08:43:39;;;;;;;1.17;0.90;;;21.10;79.70;;;;;;4989684;28;20018;-81
2023/07/21 08:46:09;;;;;;;1.05;0.95;;;21.10;79.70;;;;;;4991794;28;20481;-82
2023/07/21 08:48:35;;;;;;;2.47;1.25;;;21.10;79.60;;;;;;4989896;28;20026;-81
2023/07/21 08:51:02;;;;;;;2.03;1.15;;;21.20;79.60;;;;;;4989951;28;20038;-82
2023/07/21 08:53:28;;;;;;;1.52;1.00;;;21.20;79.60;;;;;;4991194;28;20029;-82
2023/07/21 08:55:58;;;;;;;1.55;0.95;;;21.20;79.50;;;;;;4989745;28;20022;-81
2023/07/21 08:58:25;;;;;;;1.48;1.00;;;21.20;79.50;;;;;;4990649;28;20057;-81
2023/07/21 09:00:52;;;;;;;1.55;1.10;;;21.20;79.50;;;;;;4989756;28;20103;-82
2023/07/21 09:03:21;;;;;;;1.80;0.93;;;21.20;79.60;;;;;;4990650;28;20018;-81
2023/07/21 09:05:48;;;;;;;2.08;1.10;;;21.20;79.60;;;;;;4989443;28;20026;-81
2023/07/21 09:08:22;;;;;;;1.77;1.10;;;21.20;79.60;;;;;;4989345;28;20081;-82
2023/07/21 09:10:48;;;;;;;1.10;1.00;;;21.20;79.60;;;;;;4989266;28;20038;-81
2023/07/21 09:13:18;;;;;;;1.30;0.85;;;21.10;79.50;;;;;;4989119;28;20473;-82
2023/07/21 09:15:54;;;;;;;1.60;0.90;;;21.10;79.60;;;;;;4989202;28;20392;-82
2023/07/21 09:18:31;;;;;;;1.40;1.10;;;21.10;79.70;;;;;;4988483;28;20080;-82
2023/07/21 09:20:57;;;;;;;2.00;1.15;;;21.10;79.80;;;;;;4989421;28;20018;-82
2023/07/21 09:23:23;;;;;;;1.85;1.10;;;21.10;79.90;;;;;;4989011;28;20512;-81
2023/07/21 09:25:57;;;;;;;1.70;1.10;;;21.10;80.00;;;;;;4988708;28;20023;-81
2023/07/21 09:28:41;;;;;;;1.08;0.90;;;21.00;80.10;;;;;;4989022;28;20037;-82
2023/07/21 09:31:08;;;;;;;1.10;0.90;;;21.00;80.20;;;;;;4988710;28;20022;-82
2023/07/21 09:33:38;;;;;;;2.58;1.00;;;21.00;80.30;;;;;;4989838;28;20034;-82
2023/07/21 09:36:08;;;;;;;1.13;1.00;;;21.00;80.40;;;;;;4988763;28;20030;-81
2023/07/21 09:38:35;;;;;;;1.58;1.00;;;21.00;80.40;;;;;;4988571;28;20369;-81
2023/07/21 09:41:06;;;;;;;1.38;0.90;;;20.90;80.50;;;;;;4990053;28;20026;-82
2023/07/21 09:43:32;;;;;;;1.67;1.00;;;20.90;80.50;;;;;;4988605;28;20076;-82
2023/07/21 09:46:06;;;;;;;1.35;1.02;;;20.90;80.50;;;;;;4988356;28;20041;-82
2023/07/21 09:48:33;;;;;;;1.58;1.00;;;20.90;80.60;;;;;;4988674;28;20026;-82
2023/07/21 09:51:01;;;;;;;1.27;0.90;;;20.90;80.60;;;;;;4988439;28;20452;-81
2023/07/21 09:53:29;;;;;;;1.48;0.95;;;20.90;80.60;;;;;;4988465;28;20045;-82
2023/07/21 09:55:56;;;;;;;1.42;0.90;;;20.90;80.70;;;;;;4990184;28;20026;-83
2023/07/21 09:58:25;;;;;;;1.45;1.00;;;20.90;80.70;;;;;;4992904;28;20391;-82
2023/07/21 10:00:53;;;;;;;1.20;0.90;;;20.90;80.80;;;;;;4993865;28;20022;-83
2023/07/21 10:03:22;;;;;;;1.10;0.90;;;20.90;80.80;;;;;;4992080;28;20310;-83
2023/07/21 10:05:49;;;;;;;1.00;0.90;;;20.80;80.80;;;;;;4992433;28;20034;-82
2023/07/21 10:08:15;;;;;;;1.42;1.00;;;20.90;80.90;;;;;;4991513;28;20508;-82
2023/07/21 10:10:42;;;;;;;1.48;0.90;;;20.80;80.90;;;;;;4993003;28;20041;-82
2023/07/21 10:13:07;;;;;;;1.58;1.17;;;20.80;81.00;;;;;;4991415;28;20416;-82
2023/07/21 10:15:35;;;;;;;1.50;1.10;;;20.80;81.00;;;;;;4991072;28;20473;-83
2023/07/21 10:18:13;;;;;;;1.17;1.00;;;20.80;81.00;;;;;;4992160;28;20442;-83
2023/07/21 10:20:46;;;;;;;1.65;0.93;;;20.80;81.00;;;;;;4993104;28;20023;-83
2023/07/21 10:23:13;;;;;;;1.50;1.08;;;20.80;81.00;;;;;;4993184;28;20026;-82
2023/07/21 10:26:07;;;;;;;1.40;1.05;;;20.80;81.00;;;;;;4991254;28;20023;-83
2023/07/21 10:28:44;;;;;;;0.98;0.80;;;20.90;80.90;;;;;;4989128;28;20113;-83
2023/07/21 10:31:22;;;;;;;1.20;0.90;;;20.90;80.80;;;;;;4995251;28;20121;-83
2023/07/21 10:34:06;;;;;;;1.40;1.08;;;20.90;80.70;;;;;;4994987;28;20029;-83
2023/07/21 10:36:40;;;;;;;1.80;1.00;;;20.90;80.60;;;;;;4995299;28;20050;-82
2023/07/21 10:39:16;;;;;;;2.25;1.05;;;20.90;80.50;;;;;;4994866;28;20068;-83
2023/07/21 10:41:41;;;;;;;1.35;1.00;;;20.90;80.50;;;;;;4995039;28;20488;-82
2023/07/21 10:44:09;;;;;;;1.42;1.10;;;21.00;80.50;;;;;;4994113;28;20073;-82
2023/07/21 10:46:39;;;;;;;1.05;0.93;;;21.00;80.50;;;;;;4994502;28;20520;-81
2023/07/21 10:49:06;;;;;;;1.30;0.90;;;21.00;80.50;;;;;;4995817;28;20030;-83
2023/07/21 10:51:31;;;;;;;1.35;1.00;;;21.00;80.50;;;;;;4995909;28;20476;-83
2023/07/21 10:53:57;;;;;;;1.52;1.10;;;21.00;80.50;;;;;;4995265;28;20045;-83
2023/07/21 10:56:23;;;;;;;1.27;1.10;;;21.00;80.60;;;;;;4994075;28;20117;-82
2023/07/21 10:58:49;;;;;;;1.20;0.95;;;20.90;80.60;;;;;;4993640;28;20023;-80
2023/07/21 11:01:19;;;;;;;2.22;1.00;;;20.90;80.70;;;;;;4993782;28;20050;-83
2023/07/21 11:03:48;;;;;;;1.05;0.90;;;20.90;80.80;;;;;;4993387;28;20109;-82
2023/07/21 11:06:15;;;;;;;1.33;0.90;;;20.90;80.80;;;;;;4994505;28;20010;-82
2023/07/21 11:08:41;;;;;;;1.10;0.90;;;20.90;80.90;;;;;;4994821;28;20034;-82
2023/07/21 11:11:08;;;;;;;1.15;1.05;;;20.90;80.90;;;;;;4992678;28;20073;-82
2023/07/21 11:13:34;;;;;;;1.05;0.90;;;20.90;80.90;;;;;;4994068;28;20052;-81
2023/07/21 11:16:00;;;;;;;1.88;1.08;;;20.80;80.90;;;;;;4993135;28;20555;-83
2023/07/21 11:18:28;;;;;;;1.65;1.00;;;20.90;81.00;;;;;;4992754;28;20030;-81
2023/07/21 11:20:56;;;;;;;1.52;1.02;;;21.00;81.00;;;;;;4992704;28;20026;-83
2023/07/21 11:23:26;;;;;;;1.40;0.93;;;20.90;80.90;;;;;;4993974;28;20086;-82
2023/07/21 11:26:07;;;;;;;1.40;1.00;;;20.90;80.90;;;;;;4991929;28;20018;-82
2023/07/21 11:28:34;;;;;;;1.98;1.10;;;20.90;80.80;;;;;;4992365;28;20468;-82
2023/07/21 11:31:02;;;;;;;1.40;1.08;;;21.00;80.70;;;;;;4992217;28;20077;-81
2023/07/21 11:33:48;;;;;;;1.27;0.98;;;20.90;80.60;;;;;;4993189;28;20026;-82
2023/07/21 11:36:22;;;;;;;1.10;0.90;;;21.00;80.50;;;;;;4993382;28;20022;-82
2023/07/21 11:39:04;;;;;;;1.27;1.00;;;21.00;80.50;;;;;;4991934;28;20072;-82
2023/07/21 11:41:54;;;;;;;1.50;0.90;;;21.00;80.40;;;;;;4990813;28;20030;-82
2023/07/21 11:44:25;;;;;;;1.45;1.02;;;21.10;80.40;;;;;;4991327;28;20416;-82
2023/07/21 11:46:55;;;;;;;1.67;0.90;;;21.10;80.40;;;;;;4991501;28;20053;-82
2023/07/21 11:49:22;;;;;;;1.10;0.90;;;21.10;80.40;;;;;;4993412;28;20022;-82
2023/07/21 11:51:51;;;;;;;1.30;1.08;;;21.20;80.50;;;;;;4991188;28;20076;-81
2023/07/21 11:54:36;;;;;;;1.00;0.90;;;21.10;80.50;;;;;;4990944;28;20558;-82
2023/07/21 11:57:02;;;;;;;1.05;0.90;;;21.00;80.50;;;;;;4991236;28;20049;-82
2023/07/21 11:59:28;;;;;;;0.82;0.80;;;21.00;80.60;;;;;;4990922;28;20019;-81
2023/07/21 12:01:55;;;;;;;1.10;1.00;;;21.00;80.60;;;;;;4992417;28;20026;-82
2023/07/21 12:04:23;;;;;;;1.40;1.10;;;21.00;80.60;;;;;;4990795;28;20536;-82
2023/07/21 12:06:50;;;;;;;1.40;0.95;;;21.00;80.60;;;;;;4992332;28;20047;-81
2023/07/21 12:09:16;;;;;;;1.02;0.90;;;21.10;80.60;;;;;;4990813;28;20027;-82
2023/07/21 12:11:42;;;;;;;1.20;1.02;;;21.10;80.60;;;;;;4992123;28;20060;-81
2023/07/21 12:14:09;;;;;;;1.63;1.10;;;21.10;80.60;;;;;;4991741;28;20061;-82
2023/07/21 12:16:35;;;;;;;1.40;1.02;;;21.10;80.60;;;;;;4991889;28;20028;-81
2023/07/21 12:19:03;;;;;;;1.02;0.90;;;21.10;80.60;;;;;;4990592;28;20432;-82
2023/07/21 12:21:29;;;;;;;0.95;0.80;;;21.10;80.60;;;;;;4990876;28;20085;-82
2023/07/21 12:23:55;;;;;;;1.40;0.90;;;21.10;80.60;;;;;;4989634;28;21055;-80
2023/07/21 12:26:21;;;;;;;1.20;0.90;;;21.10;80.70;;;;;;4990281;28;20027;-81
2023/07/21 12:28:53;;;;;;;1.60;0.90;;;21.00;80.60;;;;;;4990088;28;20033;-81
2023/07/21 12:31:19;;;;;;;1.25;1.00;;;21.00;80.70;;;;;;4990178;28;20805;-82
2023/07/21 12:33:47;;;;;;;1.80;1.00;;;21.00;80.80;;;;;;4991087;28;20038;-83
2023/07/21 12:36:16;;;;;;;1.20;0.90;;;21.00;80.80;;;;;;4991396;28;20042;-82
2023/07/21 12:38:42;;;;;;;1.00;0.90;;;21.00;80.90;;;;;;4989868;28;20058;-81
2023/07/21 12:41:08;;;;;;;1.90;1.10;;;20.90;81.00;;;;;;4990028;28;20087;-82
2023/07/21 12:43:34;;;;;;;1.00;0.90;;;20.90;81.10;;;;;;4990668;28;20530;-83
2023/07/21 12:46:03;;;;;;;1.20;0.90;;;20.80;81.10;;;;;;4989868;28;20085;-83
2023/07/21 12:48:30;;;;;;;1.05;0.90;;;20.90;81.30;;;;;;4990910;28;20093;-81
2023/07/21 12:50:56;;;;;;;1.00;0.90;;;20.80;81.30;;;;;;4989476;28;20042;-82
2023/07/21 12:53:22;;;;;;;1.40;1.00;;;20.80;81.40;;;;;;4990500;28;20034;-83
2023/07/21 12:55:50;;;;;;;1.25;0.90;;;20.80;81.40;;;;;;4989593;28;20084;-82
2023/07/21 12:58:16;;;;;;;1.75;1.10;;;20.90;81.50;;;;;;4989510;28;20062;-83
2023/07/21 13:00:42;;;;;;;1.00;0.80;;;20.80;81.40;;;;;;4989335;28;20022;-82
2023/07/21 13:03:07;;;;;;;1.10;0.90;;;20.80;81.50;;;;;;4990610;28;20353;-83
2023/07/21 13:05:33;;;;;;;1.45;1.00;;;20.80;81.50;;;;;;4990456;28;20026;-82
2023/07/21 13:07:59;;;;;;;0.80;0.80;;;20.80;81.50;;;;;;4989391;28;20022;-82
2023/07/21 13:10:24;;;;;;;1.67;1.00;;;20.80;81.50;;;;;;4989251;28;20429;-82
2023/07/21 13:12:50;;;;;;;1.95;0.98;;;20.70;81.50;;;;;;4989210;28;20026;-82
2023/07/21 13:15:15;;;;;;;1.27;1.00;;;20.80;81.60;;;;;;4988418;28;20674;-83
2023/07/21 13:17:41;;;;;;;1.10;0.95;;;20.80;81.60;;;;;;4993784;28;20037;-83
2023/07/21 13:20:09;;;;;;;1.55;1.05;;;20.70;82.20;;;;;;4993800;28;20072;-83
2023/07/21 13:22:35;;;;;;;1.20;0.90;;;20.80;81.80;;;;;;4995704;28;20022;-82
2023/07/21 13:25:00;;;;;;;1.38;0.90;;;20.80;81.70;;;;;;4994957;28;20150;-82
2023/07/21 13:27:26;;;;;;;1.50;1.00;;;20.70;81.60;;;;;;4993135;28;20026;-83
2023/07/21 13:29:51;;;;;;;0.80;0.80;;;20.80;81.70;;;;;;4993054;28;20062;-83
2023/07/21 13:32:17;;;;;;;1.45;1.02;;;20.80;81.70;;;;;;4993000;28;20740;-82
2023/07/21 13:34:42;;;;;;;1.20;0.90;;;20.80;81.70;;;;;;4990478;28;20062;-84
2023/07/21 13:37:08;;;;;;;0.98;0.80;;;20.80;81.60;;;;;;4983542;28;20369;-83